Time;durP1;ratioP1;P1;durP2;ratioP2;P2;SDS_P1;SDS_P2;PMS_P1;PMS_P2;Temp;Humidity;BMP_temperature;BMP_pressure;BME280_temperature;BME280_humidity;BME280_pressure;Samples;Min_cycle;Max_cycle;Signal;HPM_P1;HPM_P2
2022/06/19 00:02:18;;;;;;;9.52;3.58;;;29.90;99.90;;;;;;4929305;29;20059;-41
2022/06/19 00:04:46;;;;;;;9.73;3.80;;;29.90;99.90;;;;;;4931192;29;20035;-41
2022/06/19 00:07:12;;;;;;;7.68;2.50;;;29.90;99.90;;;;;;4928472;29;20118;-41
2022/06/19 00:09:38;;;;;;;10.43;4.68;;;29.90;99.90;;;;;;4930330;29;20159;-42
2022/06/19 00:12:05;;;;;;;10.13;3.25;;;29.90;99.90;;;;;;4929939;29;20039;-40
2022/06/19 00:14:33;;;;;;;8.88;2.88;;;29.90;99.90;;;;;;4932501;29;20020;-41
2022/06/19 00:17:00;;;;;;;12.45;3.50;;;29.90;99.90;;;;;;4931411;29;20035;-42
2022/06/19 00:19:26;;;;;;;9.13;2.70;;;30.00;99.90;;;;;;4927983;29;20055;-42
2022/06/19 00:21:52;;;;;;;7.40;3.15;;;30.00;99.90;;;;;;4931866;29;20342;-40
2022/06/19 00:24:18;;;;;;;12.82;4.07;;;30.00;99.90;;;;;;4930903;29;20035;-41
2022/06/19 00:26:44;;;;;;;16.70;3.25;;;30.00;99.90;;;;;;4929139;29;20035;-41
2022/06/19 00:29:10;;;;;;;8.77;3.38;;;30.00;99.90;;;;;;4927374;29;21864;-41
2022/06/19 00:31:36;;;;;;;13.90;4.60;;;30.00;99.90;;;;;;4928173;29;20057;-43
2022/06/19 00:34:03;;;;;;;9.43;3.65;;;30.00;99.90;;;;;;4929438;29;20024;-39
2022/06/19 00:36:29;;;;;;;12.48;3.80;;;30.00;99.90;;;;;;4927843;29;20038;-42
2022/06/19 00:38:56;;;;;;;11.20;3.35;;;30.00;99.90;;;;;;4931983;29;20441;-41
2022/06/19 00:41:23;;;;;;;9.15;3.97;;;30.00;99.90;;;;;;4923858;29;20110;-42
2022/06/19 00:43:56;;;;;;;13.02;4.25;;;30.00;99.90;;;;;;4931457;29;20540;-42
2022/06/19 00:46:46;;;;;;;9.25;3.80;;;30.00;99.90;;;;;;4927538;29;20044;-43
2022/06/19 00:49:14;;;;;;;9.25;3.95;;;30.00;99.90;;;;;;4930771;29;20369;-41
2022/06/19 00:51:40;;;;;;;12.18;4.00;;;30.00;99.90;;;;;;4930383;29;20380;-43
2022/06/19 00:54:09;;;;;;;9.35;3.85;;;30.00;99.90;;;;;;4929399;29;20035;-44
2022/06/19 00:56:36;;;;;;;10.57;3.85;;;30.00;99.90;;;;;;4926458;29;20024;-43
2022/06/19 01:01:31;;;;;;;10.50;4.45;;;30.00;99.90;;;;;;4948709;29;20090;-46
2022/06/19 01:04:06;;;;;;;11.85;4.32;;;30.00;99.90;;;;;;4946429;29;20036;-45
2022/06/19 01:06:32;;;;;;;16.17;4.45;;;30.00;99.90;;;;;;4947934;29;20070;-46
2022/06/19 01:08:59;;;;;;;12.03;3.80;;;30.00;99.90;;;;;;4947660;28;20023;-47
2022/06/19 01:11:28;;;;;;;10.90;4.70;;;30.10;99.90;;;;;;4946026;29;20776;-47
2022/06/19 01:13:54;;;;;;;11.70;3.92;;;30.00;99.90;;;;;;4949355;29;20042;-47
2022/06/19 01:16:20;;;;;;;12.77;3.22;;;30.00;99.90;;;;;;4950875;29;20039;-47
2022/06/19 01:18:46;;;;;;;12.75;3.22;;;29.90;99.90;;;;;;4951414;29;20031;-48
2022/06/19 01:21:34;;;;;;;7.10;3.00;;;29.90;99.90;;;;;;4949361;29;20435;-47
2022/06/19 01:24:21;;;;;;;11.63;3.10;;;29.90;99.90;;;;;;4950960;29;20042;-47
2022/06/19 01:26:49;;;;;;;;;;;29.90;99.90;;;;;;4948087;29;20039;-48
2022/06/19 01:29:18;;;;;;;14.02;3.78;;;29.90;99.90;;;;;;4951522;29;19917;-48
2022/06/19 01:31:52;;;;;;;9.00;3.47;;;29.90;99.90;;;;;;4951652;29;20058;-47
2022/06/19 01:34:26;;;;;;;13.05;3.83;;;29.90;99.90;;;;;;4951524;29;20031;-47
2022/06/19 01:37:07;;;;;;;9.77;3.00;;;29.90;99.90;;;;;;4951669;29;20039;-48
2022/06/19 01:39:41;;;;;;;13.52;3.00;;;29.90;99.90;;;;;;4951593;29;20027;-48
2022/06/19 01:42:08;;;;;;;10.48;3.33;;;29.90;99.90;;;;;;4934000;29;20364;-49
2022/06/19 01:44:35;;;;;;;8.77;2.90;;;29.80;99.90;;;;;;4951438;29;20113;-48
2022/06/19 01:47:01;;;;;;;7.10;2.97;;;29.80;99.90;;;;;;4951333;29;20130;-48
2022/06/19 01:49:32;;;;;;;5.95;3.05;;;29.70;99.90;;;;;;4951490;29;20031;-49
2022/06/19 01:51:58;;;;;;;9.70;3.53;;;29.70;99.90;;;;;;4951287;29;20086;-48
2022/06/19 01:54:39;;;;;;;9.98;2.78;;;29.70;99.90;;;;;;4951949;29;20058;-49
2022/06/19 01:57:07;;;;;;;8.20;3.65;;;29.70;99.90;;;;;;4935940;29;20035;-49
2022/06/19 01:59:34;;;;;;;9.93;2.65;;;29.70;99.90;;;;;;4953504;29;20314;-49
2022/06/19 02:02:04;;;;;;;8.93;2.75;;;29.70;99.90;;;;;;4953028;29;20078;-49
2022/06/19 02:04:31;;;;;;;6.45;2.42;;;29.70;99.90;;;;;;4953076;29;20090;-49
2022/06/19 02:07:02;;;;;;;12.40;2.83;;;29.60;99.90;;;;;;4935738;29;20039;-48
2022/06/19 02:09:28;;;;;;;10.77;3.35;;;29.50;99.90;;;;;;4953008;29;20168;-48
2022/06/19 02:11:55;;;;;;;15.60;3.20;;;29.30;99.90;;;;;;4953052;29;20041;-48
2022/06/19 02:14:21;;;;;;;11.02;3.60;;;29.30;99.90;;;;;;4952982;29;20035;-48
2022/06/19 02:16:48;;;;;;;10.90;2.85;;;29.30;99.90;;;;;;4953095;29;20035;-48
2022/06/19 02:19:16;;;;;;;5.30;2.33;;;29.30;99.90;;;;;;4935711;29;20023;-48
2022/06/19 02:21:52;;;;;;;10.38;3.15;;;29.30;99.90;;;;;;4954451;28;20028;-48
2022/06/19 02:24:21;;;;;;;9.30;3.03;;;29.30;99.90;;;;;;4956947;29;20089;-48
2022/06/19 02:26:49;;;;;;;10.35;2.08;;;29.40;99.90;;;;;;4956736;29;20285;-46
2022/06/19 02:29:17;;;;;;;6.47;2.58;;;29.30;99.90;;;;;;4956659;29;20027;-47
2022/06/19 02:31:45;;;;;;;9.65;2.53;;;29.40;99.90;;;;;;4956813;29;20031;-47
2022/06/19 02:34:29;;;;;;;11.38;2.78;;;29.40;99.90;;;;;;4956835;29;20439;-48
2022/06/19 02:36:58;;;;;;;12.63;3.25;;;29.30;99.90;;;;;;4956997;29;20037;-47
2022/06/19 02:39:26;;;;;;;11.98;3.10;;;29.30;99.90;;;;;;4939559;29;20392;-47
2022/06/19 02:42:22;;;;;;;6.68;1.80;;;29.30;99.90;;;;;;4956536;29;20086;-46
2022/06/19 02:44:54;;;;;;;8.55;2.30;;;29.30;99.90;;;;;;4948199;29;20153;-47
2022/06/19 02:47:23;;;;;;;7.75;2.50;;;29.20;99.90;;;;;;4956613;29;20325;-47
2022/06/19 02:49:48;;;;;;;8.27;2.08;;;29.20;99.90;;;;;;4956595;29;20509;-46
2022/06/19 02:52:14;;;;;;;11.55;2.53;;;29.10;99.90;;;;;;4956534;29;20034;-47
2022/06/19 02:54:40;;;;;;;6.50;2.90;;;29.10;99.90;;;;;;4938970;29;20119;-46
2022/06/19 02:57:09;;;;;;;9.77;2.97;;;29.10;99.90;;;;;;4956174;29;20494;-49
2022/06/19 02:59:35;;;;;;;6.55;2.38;;;29.10;99.90;;;;;;4956657;29;20039;-48
2022/06/19 03:02:01;;;;;;;7.03;2.88;;;29.10;99.90;;;;;;4956284;29;20027;-48
2022/06/19 03:04:47;;;;;;;12.50;2.22;;;29.10;99.90;;;;;;4956315;29;20034;-48
2022/06/19 03:07:12;;;;;;;13.35;2.92;;;29.20;99.90;;;;;;4938923;29;20050;-48
2022/06/19 03:09:38;;;;;;;7.15;2.17;;;29.20;99.90;;;;;;4938860;29;20023;-47
2022/06/19 03:12:04;;;;;;;9.23;2.70;;;29.20;99.90;;;;;;4956153;29;20035;-49
2022/06/19 03:14:30;;;;;;;7.78;2.30;;;29.20;99.90;;;;;;4956111;29;20019;-48
2022/06/19 03:16:56;;;;;;;8.10;2.10;;;29.30;99.90;;;;;;4956109;29;20031;-49
2022/06/19 03:19:21;;;;;;;4.50;2.10;;;29.30;99.90;;;;;;4938648;29;20032;-48
2022/06/19 03:21:49;;;;;;;12.43;3.22;;;29.30;99.90;;;;;;4955850;29;20472;-48
2022/06/19 03:24:15;;;;;;;7.43;2.40;;;29.30;99.90;;;;;;4956105;29;20086;-48
2022/06/19 03:26:41;;;;;;;9.43;2.20;;;29.30;99.90;;;;;;4938554;29;20039;-48
2022/06/19 03:29:07;;;;;;;10.93;2.50;;;29.30;99.90;;;;;;4955778;29;20390;-48
2022/06/19 03:31:33;;;;;;;9.70;2.58;;;29.30;99.90;;;;;;4955705;29;20126;-48
2022/06/19 03:33:58;;;;;;;6.22;2.80;;;29.30;99.90;;;;;;4955502;28;20023;-48
2022/06/19 03:36:25;;;;;;;9.32;2.80;;;29.30;99.90;;;;;;4956011;29;20034;-48
2022/06/19 03:38:50;;;;;;;10.43;3.30;;;29.30;99.90;;;;;;4955634;29;20027;-48
2022/06/19 03:41:16;;;;;;;11.27;2.50;;;29.30;99.90;;;;;;4955271;29;20023;-46
2022/06/19 03:43:42;;;;;;;8.68;2.78;;;29.30;99.90;;;;;;4938130;29;20468;-48
2022/06/19 03:46:16;;;;;;;9.50;2.80;;;29.30;99.90;;;;;;4954932;29;20050;-50
2022/06/19 03:48:45;;;;;;;8.40;2.80;;;29.30;99.90;;;;;;4944532;29;20046;-49
2022/06/19 03:51:11;;;;;;;9.80;3.15;;;29.30;99.90;;;;;;4950510;29;20031;-50
2022/06/19 03:53:37;;;;;;;8.20;2.60;;;29.30;99.90;;;;;;4954807;29;20035;-49
2022/06/19 03:56:04;;;;;;;7.77;2.50;;;29.30;99.90;;;;;;4950175;29;20054;-49
2022/06/19 03:58:46;;;;;;;6.07;2.00;;;29.30;99.90;;;;;;4954974;29;20033;-49
2022/06/19 04:01:27;;;;;;;8.75;2.75;;;29.30;99.90;;;;;;4955076;29;20411;-49
2022/06/19 04:03:55;;;;;;;15.13;2.97;;;29.10;99.90;;;;;;4954518;29;20027;-49
2022/06/19 04:06:23;;;;;;;;;;;29.20;99.90;;;;;;4954827;29;20074;-49
2022/06/19 04:08:48;;;;;;;14.25;3.85;;;29.20;99.90;;;;;;4954630;29;19911;-49
2022/06/19 04:11:16;;;;;;;8.85;2.67;;;29.20;99.90;;;;;;4954634;29;20031;-49
2022/06/19 04:13:42;;;;;;;12.65;4.05;;;29.10;99.90;;;;;;4954578;29;20023;-47
2022/06/19 04:16:14;;;;;;;6.88;2.28;;;29.20;99.90;;;;;;4954324;29;20046;-47
2022/06/19 04:18:40;;;;;;;7.82;2.78;;;29.10;99.90;;;;;;4954874;29;20027;-47
2022/06/19 04:21:14;;;;;;;9.25;2.72;;;29.10;99.90;;;;;;4953985;29;20074;-47
2022/06/19 04:23:42;;;;;;;10.25;2.22;;;29.00;99.90;;;;;;4954437;29;20062;-48
2022/06/19 04:26:14;;;;;;;8.30;2.33;;;28.90;99.90;;;;;;4954362;29;20039;-48
2022/06/19 04:28:41;;;;;;;11.30;2.63;;;28.80;99.90;;;;;;4954162;29;20042;-48
2022/06/19 04:31:07;;;;;;;12.05;2.00;;;28.80;99.90;;;;;;4937128;29;20488;-48
2022/06/19 04:33:37;;;;;;;10.70;2.47;;;28.80;99.90;;;;;;4954602;29;20464;-48
2022/06/19 04:36:04;;;;;;;11.98;2.40;;;28.80;99.90;;;;;;4953588;29;20047;-46
2022/06/19 04:38:30;;;;;;;10.65;2.05;;;28.70;99.90;;;;;;4954409;29;20107;-47
2022/06/19 04:40:56;;;;;;;11.70;2.60;;;28.70;99.90;;;;;;4954536;29;20035;-47
2022/06/19 04:43:22;;;;;;;9.57;3.17;;;28.60;99.90;;;;;;4954210;28;20019;-47
2022/06/19 04:45:48;;;;;;;14.45;2.15;;;28.60;99.90;;;;;;4952964;29;20042;-46
2022/06/19 04:48:14;;;;;;;10.48;2.00;;;28.40;99.90;;;;;;4953698;29;20413;-47
2022/06/19 04:50:40;;;;;;;10.32;2.58;;;28.30;99.90;;;;;;4953863;29;20023;-47
2022/06/19 04:53:06;;;;;;;11.00;2.67;;;28.30;99.90;;;;;;4953992;29;20034;-47
2022/06/19 04:55:32;;;;;;;11.80;2.25;;;28.30;99.90;;;;;;4954046;29;20265;-47
2022/06/19 04:58:02;;;;;;;10.43;1.83;;;28.30;99.90;;;;;;4956366;28;20182;-48
2022/06/19 05:00:28;;;;;;;10.43;1.80;;;28.40;99.90;;;;;;4953838;29;20086;-47
2022/06/19 05:02:54;;;;;;;12.27;2.22;;;28.40;99.90;;;;;;4954010;29;20527;-47
2022/06/19 05:05:21;;;;;;;11.05;2.30;;;28.40;99.90;;;;;;4953870;29;20066;-47
2022/06/19 05:07:47;;;;;;;7.40;2.08;;;28.50;99.90;;;;;;4954287;29;20050;-48
2022/06/19 05:10:14;;;;;;;12.32;2.97;;;28.60;99.90;;;;;;4953594;29;20077;-46
2022/06/19 05:12:40;;;;;;;9.53;1.70;;;28.40;99.90;;;;;;4953790;29;20627;-46
2022/06/19 05:15:07;;;;;;;10.52;1.90;;;28.40;99.90;;;;;;4953832;29;20253;-46
2022/06/19 05:17:33;;;;;;;7.45;1.95;;;28.30;99.90;;;;;;4953521;29;20046;-46
2022/06/19 05:19:59;;;;;;;10.80;2.15;;;28.20;99.90;;;;;;4953000;29;20086;-47
2022/06/19 05:22:25;;;;;;;6.95;2.22;;;28.10;99.90;;;;;;4953637;29;20037;-46
2022/06/19 05:24:51;;;;;;;12.82;2.35;;;28.00;99.90;;;;;;4953754;29;20068;-46
2022/06/19 05:27:16;;;;;;;8.98;2.60;;;27.90;99.90;;;;;;4953450;29;20094;-46
2022/06/19 05:29:42;;;;;;;12.10;2.83;;;27.90;99.90;;;;;;4935968;29;20102;-46
2022/06/19 05:32:08;;;;;;;12.65;2.55;;;27.80;99.90;;;;;;4953057;29;20027;-47
2022/06/19 05:34:36;;;;;;;13.75;2.53;;;27.80;99.90;;;;;;4953212;29;20064;-47
2022/06/19 05:37:03;;;;;;;13.07;2.30;;;27.80;99.90;;;;;;4952789;29;20039;-46
2022/06/19 05:39:29;;;;;;;11.50;2.00;;;27.80;99.90;;;;;;4935773;29;20089;-47
2022/06/19 05:41:58;;;;;;;13.73;2.27;;;27.70;99.90;;;;;;4952899;29;20479;-47
2022/06/19 05:44:25;;;;;;;12.38;2.80;;;27.70;99.90;;;;;;4952863;29;20269;-46
2022/06/19 05:46:51;;;;;;;9.93;2.28;;;27.70;99.90;;;;;;4953283;29;20122;-47
2022/06/19 05:49:17;;;;;;;9.77;2.73;;;27.70;99.90;;;;;;4953116;29;20424;-47
2022/06/19 05:51:43;;;;;;;18.55;2.75;;;27.70;99.90;;;;;;4953286;29;20479;-48
2022/06/19 05:54:10;;;;;;;33.22;3.50;;;27.70;99.90;;;;;;4952856;29;20050;-48
2022/06/19 05:56:36;;;;;;;24.52;2.78;;;27.70;99.90;;;;;;4933451;29;20482;-48
2022/06/19 05:59:02;;;;;;;21.85;3.65;;;27.80;99.90;;;;;;4933977;29;20487;-48
2022/06/19 06:01:29;;;;;;;10.65;3.10;;;27.80;99.90;;;;;;4933969;29;20511;-48
2022/06/19 06:03:56;;;;;;;18.23;4.30;;;27.80;99.90;;;;;;4951010;29;20537;-47
2022/06/19 06:06:25;;;;;;;17.85;3.03;;;28.00;99.90;;;;;;4953278;29;20121;-48
2022/06/19 06:08:52;;;;;;;11.73;2.38;;;28.10;99.90;;;;;;4947424;29;20034;-48
2022/06/19 06:11:19;;;;;;;20.23;3.47;;;28.20;99.90;;;;;;4952278;29;20038;-48
2022/06/19 06:13:45;;;;;;;8.55;2.10;;;28.20;99.90;;;;;;4935231;29;20457;-47
2022/06/19 06:16:17;;;;;;;12.93;2.20;;;28.20;99.90;;;;;;4952557;29;20042;-48
2022/06/19 06:18:43;;;;;;;13.15;2.80;;;28.20;99.90;;;;;;4953059;29;20118;-48
2022/06/19 06:21:14;;;;;;;7.95;1.85;;;28.30;99.90;;;;;;4952953;29;20059;-48
2022/06/19 06:23:41;;;;;;;12.88;2.45;;;28.20;99.90;;;;;;4951548;29;20025;-47
2022/06/19 06:26:13;;;;;;;12.50;2.17;;;28.10;99.90;;;;;;4950472;29;20036;-47
2022/06/19 06:28:45;;;;;;;7.32;2.63;;;28.10;99.90;;;;;;4951564;29;20031;-47
2022/06/19 06:31:11;;;;;;;9.23;2.55;;;27.90;99.90;;;;;;4952836;29;20035;-48
2022/06/19 06:33:38;;;;;;;11.15;2.60;;;27.90;99.90;;;;;;4952927;29;20114;-47
2022/06/19 06:36:04;;;;;;;14.57;3.30;;;27.90;99.90;;;;;;4952846;29;20027;-47
2022/06/19 06:38:30;;;;;;;11.35;3.13;;;27.80;99.90;;;;;;4952673;29;20038;-47
2022/06/19 06:40:56;;;;;;;15.18;2.70;;;27.70;99.90;;;;;;4953086;29;20030;-48
2022/06/19 06:43:23;;;;;;;17.63;4.70;;;27.70;99.90;;;;;;4952539;29;20031;-47
2022/06/19 06:45:49;;;;;;;10.32;2.22;;;27.70;99.90;;;;;;4952816;29;20042;-48
2022/06/19 06:48:17;;;;;;;13.25;2.65;;;27.70;99.90;;;;;;4935518;29;20055;-48
2022/06/19 06:50:42;;;;;;;;;;;27.60;99.90;;;;;;4953384;29;20106;-47
2022/06/19 06:53:09;;;;;;;19.00;2.88;;;27.60;99.90;;;;;;4952700;29;19946;-48
2022/06/19 06:55:39;;;;;;;10.57;2.47;;;27.60;99.90;;;;;;4952612;29;20023;-47
2022/06/19 06:58:05;;;;;;;12.73;2.85;;;27.50;99.90;;;;;;4952742;29;20039;-47
2022/06/19 07:00:31;;;;;;;17.00;3.05;;;27.50;99.90;;;;;;4952391;29;20051;-47
2022/06/19 07:02:59;;;;;;;7.80;2.85;;;27.50;99.90;;;;;;4952900;29;20166;-47
2022/06/19 07:05:25;;;;;;;10.85;2.38;;;27.50;99.90;;;;;;4952796;29;20065;-47
2022/06/19 07:07:51;;;;;;;12.20;2.15;;;27.50;99.90;;;;;;4954056;28;20042;-48
2022/06/19 07:10:17;;;;;;;9.57;2.42;;;27.50;99.90;;;;;;4939120;29;20031;-48
2022/06/19 07:12:43;;;;;;;16.40;2.83;;;27.60;99.90;;;;;;4956097;29;20030;-47
2022/06/19 07:15:11;;;;;;;9.70;2.53;;;27.60;99.90;;;;;;4956017;29;20020;-48
2022/06/19 07:17:37;;;;;;;12.35;2.40;;;27.70;99.90;;;;;;4955980;29;20027;-47
2022/06/19 07:20:03;;;;;;;11.15;2.35;;;27.60;99.90;;;;;;4956003;29;20471;-47
2022/06/19 07:22:29;;;;;;;11.30;2.43;;;27.60;99.90;;;;;;4956038;29;20110;-47
2022/06/19 07:24:55;;;;;;;12.30;2.72;;;27.60;99.90;;;;;;4956065;29;20784;-47
2022/06/19 07:27:21;;;;;;;11.00;3.08;;;27.60;99.90;;;;;;4955721;29;20395;-46
2022/06/19 07:29:47;;;;;;;7.80;2.10;;;27.60;99.90;;;;;;4955758;29;20015;-46
2022/06/19 07:32:13;;;;;;;12.38;2.63;;;27.60;99.90;;;;;;4955586;29;20383;-46
2022/06/19 07:34:41;;;;;;;10.70;2.70;;;27.60;99.90;;;;;;4955430;29;20031;-46
2022/06/19 07:37:07;;;;;;;10.43;2.60;;;27.60;99.90;;;;;;4955550;29;20042;-46
2022/06/19 07:39:36;;;;;;;9.82;2.90;;;27.60;99.90;;;;;;4938472;29;20573;-46
2022/06/19 07:42:04;;;;;;;19.00;3.78;;;27.60;99.90;;;;;;4955544;29;20437;-46
2022/06/19 07:44:29;;;;;;;11.68;2.63;;;27.60;99.90;;;;;;4955674;29;20015;-46
2022/06/19 07:52:24;;;;;;;13.18;2.97;;;27.70;99.90;;;;;;4954868;29;20085;-48
2022/06/19 07:54:50;;;;;;;10.43;3.08;;;27.70;99.90;;;;;;4955247;29;20028;-47
2022/06/19 07:57:16;;;;;;;10.65;2.22;;;27.60;99.90;;;;;;4952063;29;20023;-47
2022/06/19 07:59:41;;;;;;;14.25;2.70;;;27.60;99.90;;;;;;4947140;29;20055;-47
2022/06/19 08:02:07;;;;;;;9.70;2.28;;;27.60;99.90;;;;;;4955129;29;20031;-48
2022/06/19 08:04:33;;;;;;;11.25;2.53;;;27.60;99.90;;;;;;4937757;29;20075;-48
2022/06/19 08:06:59;;;;;;;12.48;2.30;;;27.60;99.90;;;;;;4955023;29;20042;-49
2022/06/19 08:09:25;;;;;;;11.65;3.58;;;27.60;99.90;;;;;;4954992;29;20242;-48
2022/06/19 08:11:50;;;;;;;15.85;3.53;;;27.50;99.90;;;;;;4955038;29;20070;-47
2022/06/19 08:14:16;;;;;;;12.45;2.80;;;27.50;99.90;;;;;;4954478;29;20038;-46
2022/06/19 08:16:42;;;;;;;10.30;2.25;;;27.50;99.90;;;;;;4953722;29;20031;-46
2022/06/19 08:19:08;;;;;;;8.15;2.25;;;27.50;99.90;;;;;;4953870;28;20110;-46
2022/06/19 08:21:33;;;;;;;9.63;2.00;;;27.50;99.90;;;;;;4954619;29;20110;-46
2022/06/19 08:23:59;;;;;;;12.35;2.65;;;27.60;99.90;;;;;;4954960;29;20106;-46
2022/06/19 08:26:25;;;;;;;9.55;2.40;;;27.60;99.90;;;;;;4954304;29;20046;-46
2022/06/19 08:29:03;;;;;;;11.02;2.33;;;27.60;99.90;;;;;;4954617;29;20493;-47
2022/06/19 08:31:30;;;;;;;13.50;2.72;;;27.70;99.90;;;;;;4954600;29;20073;-46
2022/06/19 08:33:56;;;;;;;13.63;2.30;;;27.70;99.90;;;;;;4954496;29;20055;-47
2022/06/19 08:36:24;;;;;;;8.10;2.42;;;27.70;99.90;;;;;;4953919;29;20476;-46
2022/06/19 08:38:54;;;;;;;12.07;2.53;;;27.70;99.90;;;;;;4954210;29;20532;-47
2022/06/19 08:41:52;;;;;;;10.85;3.17;;;27.70;99.90;;;;;;4954270;29;20438;-47
2022/06/19 08:44:36;;;;;;;9.52;2.95;;;27.80;99.90;;;;;;4954076;29;20407;-48
2022/06/19 08:47:28;;;;;;;15.07;2.60;;;27.80;99.90;;;;;;4954554;28;20036;-49
2022/06/19 08:50:17;;;;;;;13.60;2.70;;;27.80;99.90;;;;;;4954168;29;20039;-49
2022/06/19 08:52:59;;;;;;;11.52;3.10;;;27.80;99.90;;;;;;4954358;29;20422;-49
2022/06/19 08:55:44;;;;;;;14.50;2.47;;;27.80;99.90;;;;;;4954080;29;20027;-48
2022/06/19 08:58:43;;;;;;;9.55;2.53;;;27.90;99.90;;;;;;4954148;29;20039;-49
2022/06/19 09:01:20;;;;;;;7.50;2.80;;;27.90;99.90;;;;;;4953420;29;20046;-47
2022/06/19 09:07:07;;;;;;;8.68;2.67;;;27.90;99.90;;;;;;4946312;29;20049;-46
2022/06/19 09:09:52;;;;;;;12.13;2.17;;;27.90;99.90;;;;;;4906999;29;20068;-47
2022/06/19 09:12:43;;;;;;;7.32;2.40;;;27.80;99.90;;;;;;4953805;29;20055;-46
2022/06/19 09:15:16;;;;;;;15.07;3.42;;;27.70;99.90;;;;;;4952696;28;20023;-47
2022/06/19 09:17:54;;;;;;;7.43;2.20;;;27.70;99.90;;;;;;4953517;29;20035;-46
2022/06/19 09:20:40;;;;;;;11.68;2.65;;;27.60;99.90;;;;;;4953341;29;20258;-47
2022/06/19 09:23:18;;;;;;;11.75;2.72;;;27.50;99.90;;;;;;4955456;28;20031;-47
2022/06/19 09:26:02;;;;;;;17.25;3.83;;;27.50;99.90;;;;;;4953048;29;20502;-46
2022/06/19 09:28:41;;;;;;;10.80;2.20;;;27.50;99.90;;;;;;4952285;29;20502;-47
2022/06/19 09:31:15;;;;;;;14.48;3.50;;;27.50;99.90;;;;;;4951902;28;20032;-48
2022/06/19 09:34:20;;;;;;;10.98;3.28;;;27.40;99.90;;;;;;4943954;29;20667;-46
2022/06/19 09:37:08;;;;;;;10.43;3.28;;;27.40;99.90;;;;;;4938284;29;20074;-48
2022/06/19 09:39:50;;;;;;;15.27;2.83;;;27.30;99.90;;;;;;4952493;29;20023;-47
2022/06/19 09:42:21;;;;;;;14.50;2.63;;;27.30;99.90;;;;;;4953356;29;20066;-47
2022/06/19 09:44:47;;;;;;;14.10;2.75;;;27.30;99.90;;;;;;4953187;29;20384;-47
2022/06/19 09:47:22;;;;;;;10.90;2.20;;;27.30;99.90;;;;;;4953319;29;20039;-46
2022/06/19 09:49:59;;;;;;;10.63;1.88;;;27.30;99.90;;;;;;4953442;29;20102;-48
2022/06/19 09:52:40;;;;;;;7.78;2.17;;;27.30;99.90;;;;;;4953197;29;20027;-48
2022/06/19 09:55:22;;;;;;;14.43;4.43;;;27.40;99.90;;;;;;4953480;29;20518;-48
2022/06/19 09:58:12;;;;;;;11.35;2.92;;;27.40;99.90;;;;;;4953135;29;20118;-46
2022/06/19 10:00:40;;;;;;;13.10;3.10;;;27.40;99.90;;;;;;4904342;29;20050;-47
2022/06/19 10:03:14;;;;;;;11.77;2.83;;;27.40;99.90;;;;;;4953275;29;20043;-47
2022/06/19 10:05:49;;;;;;;11.40;2.88;;;27.50;99.90;;;;;;4953100;29;20024;-47
2022/06/19 10:08:18;;;;;;;28.50;19.08;;;27.50;99.90;;;;;;4953082;29;20427;-47
2022/06/19 10:10:58;;;;;;;20.60;12.27;;;27.50;99.90;;;;;;4952999;29;20023;-47
2022/06/19 10:13:41;;;;;;;17.27;9.93;;;27.50;99.90;;;;;;4952836;29;20035;-47
2022/06/19 10:16:35;;;;;;;18.77;10.57;;;27.50;99.90;;;;;;4953189;29;20452;-47
2022/06/19 10:19:16;;;;;;;12.10;5.75;;;27.50;99.90;;;;;;4953028;29;20034;-46
2022/06/19 10:25:00;;;;;;;7.57;3.28;;;27.60;99.90;;;;;;4953009;29;20109;-47
2022/06/19 10:27:47;;;;;;;7.05;2.60;;;27.70;99.90;;;;;;4952940;29;20109;-47
2022/06/19 10:30:22;;;;;;;11.68;5.40;;;27.70;99.90;;;;;;4952964;29;20034;-47
2022/06/19 10:33:06;;;;;;;15.00;5.80;;;27.70;99.90;;;;;;4952654;29;20019;-47
2022/06/19 10:35:57;;;;;;;16.23;4.55;;;27.80;99.90;;;;;;4952910;29;20028;-48
2022/06/19 10:38:54;;;;;;;17.80;6.40;;;27.80;99.90;;;;;;4952820;29;20023;-47
2022/06/19 10:42:05;;;;;;;15.57;5.55;;;27.80;99.90;;;;;;4952847;28;20041;-47
2022/06/19 10:45:12;;;;;;;18.60;9.40;;;27.80;99.90;;;;;;4956408;29;20154;-51
2022/06/19 10:47:53;;;;;;;13.07;7.43;;;27.90;99.90;;;;;;4956769;29;20027;-47
2022/06/19 10:50:23;;;;;;;20.20;7.07;;;27.90;99.90;;;;;;4956426;29;20023;-47
2022/06/19 10:53:01;;;;;;;16.27;6.15;;;27.90;99.90;;;;;;4956246;29;20027;-47
2022/06/19 10:56:00;;;;;;;14.35;4.93;;;27.80;99.90;;;;;;4956129;29;20105;-47
2022/06/19 10:58:29;;;;;;;12.35;4.97;;;27.80;99.90;;;;;;4956445;29;20549;-47
2022/06/19 11:01:00;;;;;;;14.15;5.10;;;27.90;99.90;;;;;;4956229;29;20044;-47
2022/06/19 11:06:36;;;;;;;10.25;4.38;;;27.90;99.90;;;;;;4956269;29;20149;-47
2022/06/19 11:09:07;;;;;;;23.50;10.00;;;27.90;99.90;;;;;;4956111;29;20122;-47
2022/06/19 11:11:37;;;;;;;18.45;8.90;;;27.90;99.90;;;;;;4956004;29;20028;-47
2022/06/19 11:14:07;;;;;;;26.52;13.55;;;28.00;99.90;;;;;;4956175;29;20054;-47
2022/06/19 11:16:50;;;;;;;19.63;13.73;;;28.00;99.90;;;;;;4956022;29;20027;-47
2022/06/19 11:19:45;;;;;;;19.45;12.55;;;28.10;99.90;;;;;;4955875;29;20126;-47
2022/06/19 11:22:33;;;;;;;14.32;6.32;;;28.10;99.90;;;;;;4956064;29;20035;-47
2022/06/19 11:25:18;;;;;;;14.80;5.25;;;28.20;99.90;;;;;;4955996;29;20026;-47
2022/06/19 11:28:03;;;;;;;9.95;3.60;;;28.20;99.90;;;;;;4955748;29;20097;-47
2022/06/19 11:30:37;;;;;;;16.67;5.22;;;28.30;99.90;;;;;;4955910;29;20106;-47
2022/06/19 11:33:08;;;;;;;11.43;4.85;;;28.30;99.90;;;;;;4955600;29;20114;-47
2022/06/19 11:35:56;;;;;;;13.55;4.57;;;28.30;99.90;;;;;;4955663;29;20015;-47
2022/06/19 11:38:44;;;;;;;9.38;3.53;;;28.30;99.90;;;;;;4955613;29;20070;-47
2022/06/19 11:41:25;;;;;;;12.05;4.78;;;28.30;99.90;;;;;;4955680;29;20051;-48
2022/06/19 11:44:03;;;;;;;13.30;5.00;;;28.30;99.90;;;;;;4955294;29;20019;-47
2022/06/19 11:46:30;;;;;;;12.32;4.28;;;28.20;99.90;;;;;;4955373;29;20050;-47
2022/06/19 11:49:16;;;;;;;10.23;3.05;;;28.30;99.90;;;;;;4955228;29;20075;-48
2022/06/19 11:51:45;;;;;;;14.35;3.33;;;28.20;99.90;;;;;;4955567;29;20114;-47
2022/06/19 11:54:14;;;;;;;17.98;3.75;;;28.20;99.90;;;;;;4955378;28;20026;-47
2022/06/19 11:56:42;;;;;;;13.93;3.53;;;28.20;99.90;;;;;;4955085;29;20031;-47
2022/06/19 11:59:26;;;;;;;;;;;28.30;99.90;;;;;;4955350;29;20492;-47
2022/06/19 12:01:52;;;;;;;12.60;3.08;;;28.30;99.90;;;;;;4954846;29;19944;-47
2022/06/19 12:04:25;;;;;;;14.57;3.33;;;28.30;99.90;;;;;;4954882;29;20031;-47
2022/06/19 12:07:01;;;;;;;10.82;2.53;;;28.30;99.90;;;;;;4954847;29;20045;-48
2022/06/19 12:09:38;;;;;;;9.55;3.28;;;28.30;99.90;;;;;;4954962;29;20106;-47
2022/06/19 12:12:12;;;;;;;13.70;2.47;;;28.30;99.90;;;;;;4954819;29;20039;-47
2022/06/19 12:15:21;;;;;;;13.38;2.97;;;28.30;99.90;;;;;;4954745;29;20019;-47
2022/06/19 12:17:54;;;;;;;12.65;3.42;;;28.30;99.90;;;;;;4953295;29;20144;-47
2022/06/19 12:20:25;;;;;;;13.57;5.45;;;28.30;99.90;;;;;;4954749;29;20019;-47
2022/06/19 12:22:50;;;;;;;31.85;20.70;;;28.30;99.90;;;;;;4954612;29;20027;-47
2022/06/19 12:25:25;;;;;;;25.45;15.98;;;28.30;99.90;;;;;;4954450;29;20023;-47
2022/06/19 12:28:11;;;;;;;34.10;22.08;;;28.40;99.90;;;;;;4954515;29;20035;-47
2022/06/19 12:30:46;;;;;;;24.77;16.02;;;28.50;99.90;;;;;;4954316;29;20023;-47
2022/06/19 12:33:24;;;;;;;21.60;10.57;;;28.50;99.90;;;;;;4954493;29;20110;-47
2022/06/19 12:35:49;;;;;;;14.98;6.78;;;28.60;99.90;;;;;;4954322;29;20027;-47
2022/06/19 12:38:19;;;;;;;19.30;6.38;;;28.60;99.90;;;;;;4954285;29;20106;-46
2022/06/19 12:41:00;;;;;;;14.45;4.25;;;28.70;99.90;;;;;;4954352;29;20094;-47
2022/06/19 12:44:03;;;;;;;22.73;7.72;;;28.70;99.90;;;;;;4954143;29;20353;-47
2022/06/19 12:46:34;;;;;;;14.60;6.07;;;28.70;99.90;;;;;;4954001;29;20106;-47
2022/06/19 12:49:05;;;;;;;10.35;3.90;;;28.60;99.90;;;;;;4954190;29;20086;-47
2022/06/19 12:51:36;;;;;;;9.77;3.05;;;28.60;99.90;;;;;;4954146;29;20023;-47
2022/06/19 12:54:05;;;;;;;12.23;4.00;;;28.50;99.90;;;;;;4954133;29;20031;-47
2022/06/19 12:57:01;;;;;;;14.48;7.32;;;28.60;99.90;;;;;;4953986;29;20023;-46
2022/06/19 12:59:48;;;;;;;14.07;6.77;;;28.60;99.90;;;;;;4916920;29;20330;-47
2022/06/19 13:02:16;;;;;;;9.95;4.43;;;28.60;99.90;;;;;;4954018;29;20494;-47
2022/06/19 13:05:23;;;;;;;10.48;3.78;;;28.70;99.90;;;;;;4953481;28;20031;-47
2022/06/19 13:07:52;;;;;;;;;;;28.70;99.90;;;;;;4954041;29;20506;-47
2022/06/19 13:10:36;;;;;;;17.13;3.35;;;28.80;99.90;;;;;;4936406;29;19934;-46
2022/06/19 13:13:33;;;;;;;10.15;2.85;;;28.90;99.90;;;;;;4953682;29;20036;-47
2022/06/19 13:16:32;;;;;;;12.85;3.47;;;29.00;99.90;;;;;;4953535;29;20047;-47
2022/06/19 13:19:17;;;;;;;9.80;4.07;;;29.00;99.90;;;;;;4952925;29;20035;-47
2022/06/19 13:22:01;;;;;;;16.88;6.88;;;29.00;99.90;;;;;;4953724;29;20106;-47
2022/06/19 13:24:50;;;;;;;7.72;3.30;;;29.00;99.90;;;;;;4953344;29;20079;-46